Time;durP1;ratioP1;P1;durP2;ratioP2;P2;SDS_P1;SDS_P2;PMS_P1;PMS_P2;Temp;Humidity;BMP_temperature;BMP_pressure;BME280_temperature;BME280_humidity;BME280_pressure;Samples;Min_cycle;Max_cycle;Signal;HPM_P1;HPM_P2
2022/08/10 18:35:36;;;;;;;;;4.33;4.33;;;;;33.00;36.38;101503.53;5434995;23;46350;-94
2022/08/10 18:38:03;;;;;;;;;9.33;7.67;;;;;33.02;36.10;101514.34;4932990;28;45641;-93
2022/08/10 18:40:29;;;;;;;;;6.33;6.00;;;;;32.92;36.46;101507.47;4947078;28;45385;-91
2022/08/10 18:42:56;;;;;;;;;5.33;5.33;;;;;32.90;36.51;101518.41;4930674;28;47024;-90
2022/08/10 18:45:27;;;;;;;;;7.67;7.67;;;;;32.78;36.52;101508.91;4952870;28;45303;-92
2022/08/10 18:48:17;;;;;;;;;6.67;5.33;;;;;32.77;36.67;101510.72;4936768;28;45464;-91
2022/08/10 18:50:46;;;;;;;;;7.00;7.00;;;;;32.73;36.48;101522.63;4945560;28;45447;-91
2022/08/10 18:53:26;;;;;;;;;6.67;6.33;;;;;32.76;36.57;101529.78;4924379;28;48341;-92
2022/08/10 18:56:04;;;;;;;;;9.67;8.67;;;;;32.67;36.26;101526.47;4925971;28;46316;-92
2022/08/10 18:58:42;;;;;;;;;7.00;6.33;;;;;32.66;36.33;101527.41;4924780;28;45385;-92
2022/08/10 19:01:23;;;;;;;;;6.00;6.00;;;;;32.62;36.92;101528.44;4945157;28;45764;-92
2022/08/10 19:04:06;;;;;;;;;7.00;7.00;;;;;32.56;36.48;101528.66;4944527;28;46341;-92
2022/08/10 19:07:12;;;;;;;;;6.00;6.00;;;;;32.42;37.05;101516.44;4923461;28;45428;-92
2022/08/10 19:09:46;;;;;;;;;5.33;5.00;;;;;32.44;37.21;101535.41;4897708;28;45423;-91
2022/08/10 19:12:18;;;;;;;;;6.67;5.67;;;;;32.38;36.63;101539.22;4926842;28;45472;-91
2022/08/10 19:15:10;;;;;;;;;7.00;7.00;;;;;32.32;37.24;101545.75;4929061;28;45372;-92
2022/08/10 19:18:00;;;;;;;;;6.33;6.00;;;;;32.26;37.45;101542.38;4915657;28;45459;-91
2022/08/10 19:20:48;;;;;;;;;6.33;6.33;;;;;32.12;37.31;101532.84;4932477;28;45392;-93
2022/08/10 19:23:20;;;;;;;;;6.67;6.67;;;;;32.08;37.09;101542.91;4922501;28;45353;-93
2022/08/10 19:25:52;;;;;;;;;7.00;7.00;;;;;32.00;37.27;101531.44;4952516;28;45576;-92
2022/08/10 19:28:32;;;;;;;;;7.00;7.00;;;;;31.95;37.11;101536.13;4939757;28;45494;-92
2022/08/10 19:31:41;;;;;;;;;7.67;7.33;;;;;31.86;37.29;101531.88;4960873;28;45356;-92
2022/08/10 19:34:31;;;;;;;;;7.67;7.00;;;;;31.87;38.00;101539.97;4865729;29;45323;-92
2022/08/10 19:37:22;;;;;;;;;10.33;9.33;;;;;31.74;37.69;101535.88;4849385;29;47048;-92
2022/08/10 19:40:09;;;;;;;;;9.33;9.33;;;;;31.74;37.74;101547.63;4846901;29;45538;-93
2022/08/10 19:42:47;;;;;;;;;8.00;8.00;;;;;31.66;38.11;101556.00;4868774;29;45435;-91
2022/08/10 19:45:30;;;;;;;;;10.00;10.00;;;;;31.62;38.38;101559.72;4871685;29;45396;-91
2022/08/10 19:48:24;;;;;;;;;9.00;9.00;;;;;31.56;38.56;101559.94;4866756;29;48295;-93
2022/08/10 19:50:59;;;;;;;;;8.00;8.00;;;;;31.45;38.69;101560.22;4841810;29;45517;-93
2022/08/10 19:53:40;;;;;;;;;8.00;8.00;;;;;31.37;38.66;101549.59;4861790;29;45351;-92
2022/08/10 19:56:25;;;;;;;;;9.67;7.67;;;;;31.35;38.71;101570.47;4863201;29;45418;-92
2022/08/10 19:59:12;;;;;;;;;10.33;8.00;;;;;31.26;38.49;101560.78;4861234;29;47182;-92
2022/08/10 20:01:38;;;;;;;;;6.33;6.33;;;;;31.17;38.67;101561.06;4871414;29;45141;-92
2022/08/10 20:04:18;;;;;;;;;7.00;7.00;;;;;31.13;38.36;101565.69;4863479;29;45319;-91
2022/08/10 20:07:12;;;;;;;;;8.33;8.00;;;;;31.07;38.72;101568.56;4860865;29;45333;-92
2022/08/10 20:09:47;;;;;;;;;8.67;8.00;;;;;30.99;39.22;101566.97;4866687;28;48320;-93
2022/08/10 20:12:36;;;;;;;;;10.67;10.33;;;;;30.94;39.36;101566.22;4931318;28;45349;-92
2022/08/10 20:15:10;;;;;;;;;10.00;8.00;;;;;30.88;39.38;101569.03;4949316;28;44826;-92
2022/08/10 20:17:42;;;;;;;;;7.67;7.67;;;;;30.85;39.44;101563.69;4926902;28;45320;-92
2022/08/10 20:20:10;;;;;;;;;8.00;8.00;;;;;30.77;39.61;101570.22;4941306;28;45452;-92
2022/08/10 20:22:48;;;;;;;;;9.00;7.00;;;;;30.72;39.76;101568.59;4916406;28;45329;-93
2022/08/10 20:25:26;;;;;;;;;7.00;7.00;;;;;30.64;39.65;101564.25;4935266;28;45475;-93
2022/08/10 20:28:12;;;;;;;;;8.33;8.33;;;;;30.58;40.13;101564.44;4961507;28;45285;-92
2022/08/10 20:30:43;;;;;;;;;10.00;8.67;;;;;30.52;40.07;101567.28;4971995;28;45012;-90
2022/08/10 20:33:16;;;;;;;;;10.67;9.67;;;;;30.39;40.26;101556.78;4946059;28;45506;-91
2022/08/10 20:36:16;;;;;;;;;9.00;8.33;;;;;30.33;40.75;101562.38;4948790;28;45410;-92
2022/08/10 20:39:03;;;;;;;;;7.00;7.00;;;;;30.23;40.63;101550.81;4887757;29;45545;-92
2022/08/10 20:41:40;;;;;;;;;8.00;8.00;;;;;30.18;40.82;101563.59;4898060;29;46595;-91
2022/08/10 20:44:15;;;;;;;;;9.67;9.00;;;;;30.09;40.72;101562.91;4874121;29;48211;-91
2022/08/10 20:46:59;;;;;;;;;8.00;8.00;;;;;30.06;40.96;101565.69;4891834;29;45496;-91
2022/08/10 20:49:54;;;;;;;;;10.67;10.00;;;;;30.01;40.94;101567.59;4896177;29;45533;-92
2022/08/10 20:52:23;;;;;;;;;7.00;7.00;;;;;29.95;41.31;101560.50;4883983;29;46581;-93
2022/08/10 20:54:54;;;;;;;;;10.00;9.00;;;;;29.90;41.88;101567.84;4868890;29;45572;-92
2022/08/10 20:57:41;;;;;;;;;9.00;8.00;;;;;29.80;41.49;101561.78;4887659;29;45396;-92
2022/08/10 21:00:09;;;;;;;;;11.00;10.00;;;;;29.75;42.16;101555.56;4883828;29;45389;-92
2022/08/10 21:02:34;;;;;;;;;10.00;10.00;;;;;29.67;42.01;101567.44;4890114;28;45422;-91
2022/08/10 21:05:12;;;;;;;;;9.33;9.00;;;;;29.60;42.12;101564.91;4883784;29;45431;-92
2022/08/10 21:07:52;;;;;;;;;11.00;10.67;;;;;29.52;42.34;101559.66;4877266;29;45348;-91
2022/08/10 21:10:32;;;;;;;;;11.00;11.00;;;;;29.43;42.58;101569.75;4900438;29;45398;-92
2022/08/10 21:13:24;;;;;;;;;10.00;10.00;;;;;29.33;42.55;101555.53;4911003;29;45229;-92
2022/08/10 21:16:18;;;;;;;;;10.67;10.67;;;;;29.24;42.74;101558.44;4927413;28;45487;-92
2022/08/10 21:18:46;;;;;;;;;10.67;10.00;;;;;29.22;43.24;101566.56;4938834;28;45372;-91
2022/08/10 21:21:36;;;;;;;;;11.00;11.00;;;;;29.16;43.47;101564.00;4938984;28;45622;-92
2022/08/10 21:24:20;;;;;;;;;11.33;11.33;;;;;29.08;43.24;101571.34;4945633;28;46310;-92
2022/08/10 22:51:56;;;;;;;;;12.00;10.33;;;;;28.08;46.65;101573.94;4918904;28;45384;-93
2022/08/10 23:00:09;;;;;;;;;13.00;12.00;;;;;28.04;46.67;101570.38;4918414;28;45463;-92
2022/08/10 23:02:37;;;;;;;;;10.67;10.67;;;;;28.03;46.82;101567.72;4900661;28;45407;-93
2022/08/10 23:05:10;;;;;;;;;10.33;10.33;;;;;27.98;46.88;101562.41;4918294;28;45459;-92
2022/08/10 23:07:45;;;;;;;;;11.00;9.00;;;;;27.95;46.88;101557.03;4918048;28;45337;-91
2022/08/10 23:10:15;;;;;;;;;12.00;11.67;;;;;27.94;47.15;101557.94;4917341;28;46232;-92
2022/08/10 23:12:45;;;;;;;;;11.00;11.00;;;;;27.92;47.16;101567.88;4924904;28;45342;-93
2022/08/10 23:20:58;;;;;;;;;11.33;10.00;;;;;27.85;47.19;101570.69;4918160;28;45248;-93
2022/08/10 23:23:28;;;;;;;;;11.33;9.67;;;;;27.78;47.38;101566.25;4900384;28;45330;-92
2022/08/10 23:25:55;;;;;;;;;9.00;7.33;;;;;27.76;47.33;101571.66;4934659;28;45630;-93
2022/08/10 23:28:23;;;;;;;;;9.67;9.67;;;;;27.74;47.30;101581.56;4954971;28;45514;-92
2022/08/10 23:30:50;;;;;;;;;9.67;9.67;;;;;27.71;47.88;101578.00;4939853;28;45359;-93
2022/08/10 23:33:24;;;;;;;;;10.00;10.00;;;;;27.67;47.88;101580.78;4938999;28;45391;-92
2022/08/10 23:35:51;;;;;;;;;11.33;11.33;;;;;27.67;47.93;101577.19;4940705;28;45509;-92
2022/08/10 23:38:27;;;;;;;;;9.33;8.33;;;;;27.63;47.78;101578.13;4937698;28;47182;-92
2022/08/10 23:40:58;;;;;;;;;10.00;9.00;;;;;27.58;47.95;101567.41;4937532;28;45562;-92
2022/08/10 23:43:38;;;;;;;;;9.00;8.67;;;;;27.60;48.20;101570.09;4956052;28;45315;-91
2022/08/10 23:46:06;;;;;;;;;9.33;8.33;;;;;27.54;47.93;101574.66;4946374;28;45240;-92
2022/08/10 23:48:34;;;;;;;;;9.67;9.67;;;;;27.52;48.17;101571.06;4945546;28;46623;-92
2022/08/10 23:51:02;;;;;;;;;11.00;9.67;;;;;27.50;48.23;101564.81;4938472;28;45394;-92
2022/08/10 23:53:35;;;;;;;;;8.33;8.33;;;;;27.46;48.23;101565.78;4937341;28;45599;-92
2022/08/10 23:56:16;;;;;;;;;9.67;8.00;;;;;27.42;48.46;101564.91;4954150;28;45506;-92
2022/08/10 23:59:13;;;;;;;;;11.00;11.00;;;;;27.37;48.48;101569.47;4939579;28;45446;-93
